Time;durP1;ratioP1;P1;durP2;ratioP2;P2;SDS_P1;SDS_P2;PMS_P1;PMS_P2;Temp;Humidity;BMP_temperature;BMP_pressure;BME280_temperature;BME280_humidity;BME280_pressure;Samples;Min_cycle;Max_cycle;Signal;HPM_P1;HPM_P2
2022/07/06 00:00:45;;;;;;;;;11.60;9.00;;;;;;;;5036858;28;8763;-75
2022/07/06 00:03:11;;;;;;;;;10.20;7.60;;;;;;;;5036778;28;8807;-75
2022/07/06 00:05:38;;;;;;;;;5.20;5.00;;;;;;;;5035545;28;8792;-74
2022/07/06 00:08:05;;;;;;;;;11.00;5.20;;;;;;;;5035610;28;8768;-74
2022/07/06 00:10:31;;;;;;;;;5.60;5.60;;;;;;;;5036744;28;8795;-75
2022/07/06 00:12:58;;;;;;;;;6.00;4.20;;;;;;;;5019975;28;8890;-75
2022/07/06 00:15:25;;;;;;;;;4.60;3.00;;;;;;;;5035614;28;8812;-74
2022/07/06 00:17:51;;;;;;;;;5.60;4.40;;;;;;;;5035210;28;8796;-74
2022/07/06 00:20:18;;;;;;;;;1.80;1.80;;;;;;;;5035305;28;8784;-80
2022/07/06 00:22:45;;;;;;;;;5.00;3.00;;;;;;;;5034970;28;8824;-74
2022/07/06 00:25:11;;;;;;;;;3.00;3.00;;;;;;;;5037234;28;8741;-74
2022/07/06 00:27:38;;;;;;;;;3.20;2.40;;;;;;;;5036129;28;8796;-74
2022/07/06 00:30:05;;;;;;;;;5.80;3.00;;;;;;;;5036398;28;8807;-75
2022/07/06 00:32:31;;;;;;;;;5.00;2.20;;;;;;;;5035946;28;8776;-75
2022/07/06 00:34:58;;;;;;;;;5.00;3.00;;;;;;;;5034711;28;8878;-75
2022/07/06 00:37:24;;;;;;;;;3.80;3.00;;;;;;;;5034415;28;8878;-76
2022/07/06 00:39:51;;;;;;;;;4.00;3.00;;;;;;;;5035720;28;8752;-75
2022/07/06 00:42:18;;;;;;;;;0.40;0.00;;;;;;;;5034682;28;8768;-75
2022/07/06 00:44:44;;;;;;;;;4.60;3.00;;;;;;;;5035127;28;8764;-75
2022/07/06 00:47:11;;;;;;;;;4.00;2.20;;;;;;;;5018514;28;8822;-79
2022/07/06 00:52:23;;;;;;;;;6.60;4.80;;;;;;;;5036052;28;8737;-74
2022/07/06 00:54:49;;;;;;;;;6.60;3.80;;;;;;;;5035089;28;8816;-74
2022/07/06 00:57:16;;;;;;;;;2.80;2.80;;;;;;;;5034690;28;8955;-75
2022/07/06 00:59:43;;;;;;;;;3.00;2.80;;;;;;;;5034621;28;8791;-74
2022/07/06 01:02:10;;;;;;;;;4.00;3.00;;;;;;;;5034559;28;8772;-79
2022/07/06 01:04:36;;;;;;;;;4.40;3.80;;;;;;;;5034435;28;8780;-74
2022/07/06 01:07:03;;;;;;;;;4.80;4.80;;;;;;;;5035307;28;8768;-81
2022/07/06 01:09:30;;;;;;;;;5.40;5.00;;;;;;;;5034415;28;8769;-75
2022/07/06 01:11:56;;;;;;;;;5.80;4.80;;;;;;;;5034343;28;8811;-76
2022/07/06 01:14:23;;;;;;;;;4.40;3.40;;;;;;;;5035280;28;8768;-75
2022/07/06 01:16:49;;;;;;;;;7.00;5.20;;;;;;;;5034524;28;8773;-75
2022/07/06 01:19:16;;;;;;;;;3.40;3.40;;;;;;;;5015085;28;8799;-75
2022/07/06 01:21:43;;;;;;;;;7.40;4.80;;;;;;;;5015534;28;8781;-75
2022/07/06 01:24:09;;;;;;;;;8.40;6.80;;;;;;;;5014452;28;8774;-74
2022/07/06 01:26:36;;;;;;;;;5.80;5.20;;;;;;;;5014159;28;8877;-75
2022/07/06 01:29:03;;;;;;;;;5.80;5.80;;;;;;;;5014383;28;8767;-79
2022/07/06 01:31:29;;;;;;;;;6.80;6.40;;;;;;;;5013281;28;8763;-75
2022/07/06 01:33:57;;;;;;;;;7.00;5.60;;;;;;;;5029458;28;8788;-75
2022/07/06 01:36:23;;;;;;;;;6.00;5.20;;;;;;;;5033281;28;8804;-81
2022/07/06 01:38:59;;;;;;;;;6.00;4.80;;;;;;;;5033916;28;8776;-74
2022/07/06 01:41:26;;;;;;;;;8.60;4.00;;;;;;;;5034925;28;8787;-75
2022/07/06 01:43:52;;;;;;;;;6.00;5.00;;;;;;;;5033918;28;8783;-75
2022/07/06 01:46:19;;;;;;;;;5.80;4.00;;;;;;;;5034144;28;8795;-75
2022/07/06 01:48:46;;;;;;;;;4.20;4.20;;;;;;;;5033501;28;8792;-75
2022/07/06 01:51:13;;;;;;;;;4.80;4.80;;;;;;;;5034837;28;9427;-75
2022/07/06 01:53:39;;;;;;;;;3.20;3.00;;;;;;;;5034806;28;8799;-75
2022/07/06 01:56:06;;;;;;;;;3.00;1.00;;;;;;;;5033751;28;8772;-75
2022/07/06 01:58:33;;;;;;;;;5.20;5.20;;;;;;;;5017214;28;8764;-74
2022/07/06 02:01:00;;;;;;;;;3.00;3.00;;;;;;;;5018068;28;8835;-75
2022/07/06 02:03:26;;;;;;;;;4.00;4.00;;;;;;;;5033217;28;8792;-74
2022/07/06 02:05:53;;;;;;;;;2.00;1.20;;;;;;;;5034825;28;8790;-75
2022/07/06 02:08:20;;;;;;;;;3.00;2.00;;;;;;;;5033377;28;8890;-75
2022/07/06 02:10:46;;;;;;;;;4.00;2.00;;;;;;;;5033694;28;8842;-74
2022/07/06 02:13:13;;;;;;;;;2.20;2.20;;;;;;;;5033719;28;9428;-74
2022/07/06 02:15:40;;;;;;;;;5.60;2.40;;;;;;;;5016766;28;8804;-75
2022/07/06 02:18:07;;;;;;;;;6.00;4.00;;;;;;;;5013654;28;8862;-75
2022/07/06 02:20:33;;;;;;;;;4.60;3.20;;;;;;;;5013307;28;8802;-75
2022/07/06 02:23:00;;;;;;;;;7.20;4.00;;;;;;;;5013676;28;8782;-75
2022/07/06 02:25:26;;;;;;;;;11.00;6.40;;;;;;;;5013562;28;8865;-75
2022/07/06 02:27:53;;;;;;;;;5.60;3.80;;;;;;;;5013785;28;8751;-75
2022/07/06 02:30:20;;;;;;;;;2.80;1.60;;;;;;;;5013173;28;9498;-75
2022/07/06 02:32:46;;;;;;;;;9.40;4.40;;;;;;;;5020025;28;8781;-75
2022/07/06 02:35:13;;;;;;;;;6.20;5.00;;;;;;;;5033017;28;8807;-75
2022/07/06 02:37:40;;;;;;;;;5.80;3.00;;;;;;;;5033072;28;8802;-75
2022/07/06 02:40:07;;;;;;;;;8.60;4.80;;;;;;;;5033476;28;8859;-74
2022/07/06 02:42:33;;;;;;;;;5.00;5.00;;;;;;;;5034175;28;8799;-75
2022/07/06 02:45:00;;;;;;;;;5.00;4.40;;;;;;;;5037268;28;9424;-75
2022/07/06 02:47:27;;;;;;;;;4.20;4.20;;;;;;;;5036778;28;8799;-75
2022/07/06 02:49:53;;;;;;;;;5.60;3.80;;;;;;;;5037345;28;8780;-75
2022/07/06 02:52:20;;;;;;;;;3.20;3.20;;;;;;;;5038679;28;8866;-75
2022/07/06 02:54:48;;;;;;;;;4.00;4.00;;;;;;;;5036759;28;8796;-75
2022/07/06 02:57:15;;;;;;;;;4.20;4.20;;;;;;;;5038278;28;8874;-75
2022/07/06 02:59:42;;;;;;;;;7.20;4.00;;;;;;;;5036755;28;8783;-75
2022/07/06 03:02:08;;;;;;;;;4.00;4.00;;;;;;;;5037000;28;8783;-77
2022/07/06 03:04:35;;;;;;;;;5.20;5.20;;;;;;;;5036815;28;8810;-79
2022/07/06 03:07:02;;;;;;;;;4.20;3.40;;;;;;;;5021215;28;8792;-76
2022/07/06 03:09:28;;;;;;;;;6.20;6.00;;;;;;;;5036549;28;8780;-77
2022/07/06 03:11:55;;;;;;;;;5.00;5.00;;;;;;;;5038100;28;8802;-75
2022/07/06 03:14:22;;;;;;;;;8.20;6.00;;;;;;;;5036236;28;8808;-74
2022/07/06 03:16:48;;;;;;;;;5.60;4.60;;;;;;;;5036743;28;8776;-75
2022/07/06 03:19:15;;;;;;;;;5.00;4.00;;;;;;;;5037022;28;8779;-75
2022/07/06 03:21:42;;;;;;;;;4.00;4.00;;;;;;;;5037337;28;8977;-81
2022/07/06 03:24:09;;;;;;;;;8.00;5.00;;;;;;;;5037714;28;8772;-75
2022/07/06 03:26:35;;;;;;;;;5.00;5.00;;;;;;;;5036172;28;8850;-75
2022/07/06 03:29:02;;;;;;;;;5.00;5.00;;;;;;;;5037608;28;8771;-75
2022/07/06 03:31:29;;;;;;;;;2.40;2.00;;;;;;;;5037449;28;8790;-75
2022/07/06 03:33:56;;;;;;;;;4.00;4.00;;;;;;;;5036798;28;8844;-75
2022/07/06 03:36:22;;;;;;;;;5.40;4.00;;;;;;;;5033165;28;8877;-74
2022/07/06 03:38:49;;;;;;;;;3.80;3.20;;;;;;;;5036302;28;8772;-74
2022/07/06 03:41:16;;;;;;;;;2.20;2.20;;;;;;;;5036208;28;8756;-74
2022/07/06 03:43:42;;;;;;;;;2.80;2.00;;;;;;;;5036170;28;8776;-75
2022/07/06 03:46:09;;;;;;;;;5.00;4.00;;;;;;;;5036897;28;8879;-74
2022/07/06 03:48:36;;;;;;;;;2.80;2.00;;;;;;;;5036884;28;8787;-74
2022/07/06 03:51:02;;;;;;;;;2.80;0.80;;;;;;;;5036102;28;8772;-74
2022/07/06 03:53:29;;;;;;;;;3.00;2.80;;;;;;;;5035194;28;8768;-75
2022/07/06 03:58:40;;;;;;;;;4.40;3.60;;;;;;;;5036590;28;8749;-74
2022/07/06 04:01:07;;;;;;;;;3.00;3.00;;;;;;;;5037683;28;8768;-74
2022/07/06 04:03:34;;;;;;;;;3.80;3.00;;;;;;;;5036517;28;8792;-75
2022/07/06 04:06:00;;;;;;;;;5.40;3.00;;;;;;;;5035753;28;8806;-74
2022/07/06 04:08:27;;;;;;;;;4.80;4.00;;;;;;;;5019108;28;9400;-74
2022/07/06 04:10:53;;;;;;;;;4.60;4.00;;;;;;;;5019489;28;8763;-74
2022/07/06 04:13:20;;;;;;;;;1.40;1.40;;;;;;;;5035984;28;8772;-74
2022/07/06 04:15:47;;;;;;;;;4.00;3.60;;;;;;;;5018810;28;8849;-74
2022/07/06 04:18:13;;;;;;;;;3.80;2.20;;;;;;;;5035381;28;8954;-74
2022/07/06 04:20:40;;;;;;;;;4.20;3.60;;;;;;;;5036316;28;8768;-74
2022/07/06 04:23:07;;;;;;;;;3.40;3.00;;;;;;;;5036645;28;8772;-74
2022/07/06 04:25:33;;;;;;;;;3.00;2.40;;;;;;;;5036265;28;8791;-75
2022/07/06 04:28:00;;;;;;;;;3.60;3.20;;;;;;;;5035936;28;8787;-74
2022/07/06 04:30:26;;;;;;;;;5.00;3.20;;;;;;;;5018573;28;8788;-74
2022/07/06 04:32:55;;;;;;;;;4.20;4.20;;;;;;;;5035100;28;8799;-74
2022/07/06 04:35:21;;;;;;;;;4.60;1.80;;;;;;;;5018606;28;8828;-74
2022/07/06 04:37:48;;;;;;;;;3.80;2.40;;;;;;;;5035318;28;8764;-74
2022/07/06 04:40:15;;;;;;;;;1.00;1.00;;;;;;;;5035863;28;8794;-77
2022/07/06 04:42:41;;;;;;;;;1.40;1.00;;;;;;;;5034812;28;8899;-74
2022/07/06 04:45:08;;;;;;;;;0.00;0.00;;;;;;;;5034979;28;8776;-74
2022/07/06 04:47:35;;;;;;;;;3.20;2.00;;;;;;;;5034687;28;8819;-74
2022/07/06 04:50:02;;;;;;;;;2.80;2.20;;;;;;;;5036224;28;8768;-74
2022/07/06 04:52:29;;;;;;;;;3.20;2.20;;;;;;;;5036014;28;8830;-74
2022/07/06 04:54:55;;;;;;;;;1.80;1.80;;;;;;;;5035414;28;8846;-74
2022/07/06 04:57:22;;;;;;;;;3.00;2.00;;;;;;;;5034433;28;8792;-75
2022/07/06 04:59:49;;;;;;;;;2.00;0.80;;;;;;;;5034728;28;8802;-74
2022/07/06 05:02:15;;;;;;;;;2.80;2.80;;;;;;;;5034687;28;8772;-74
2022/07/06 05:04:42;;;;;;;;;0.60;0.00;;;;;;;;5034978;28;8854;-74
2022/07/06 05:07:09;;;;;;;;;5.60;3.20;;;;;;;;5036546;28;8779;-76
2022/07/06 05:09:35;;;;;;;;;8.00;6.00;;;;;;;;5034114;28;8846;-74
2022/07/06 05:12:02;;;;;;;;;6.20;5.40;;;;;;;;5035606;28;8812;-74
2022/07/06 05:14:31;;;;;;;;;2.00;2.00;;;;;;;;5034163;28;8779;-74
2022/07/06 05:16:58;;;;;;;;;4.00;3.20;;;;;;;;5035550;28;8796;-74
2022/07/06 05:19:25;;;;;;;;;4.20;3.00;;;;;;;;5033933;28;9417;-76
2022/07/06 05:21:52;;;;;;;;;3.20;3.20;;;;;;;;5035103;28;8777;-74
2022/07/06 05:24:21;;;;;;;;;1.00;1.00;;;;;;;;5017531;28;9507;-75
2022/07/06 05:26:47;;;;;;;;;3.00;3.00;;;;;;;;5035461;28;8876;-74
2022/07/06 05:29:14;;;;;;;;;4.60;3.40;;;;;;;;5034181;28;8808;-74
2022/07/06 05:31:41;;;;;;;;;3.00;2.00;;;;;;;;5034745;28;8749;-74
2022/07/06 05:34:07;;;;;;;;;3.00;3.00;;;;;;;;5034508;28;8777;-78
2022/07/06 05:36:34;;;;;;;;;3.20;3.20;;;;;;;;5017128;28;8791;-74
2022/07/06 05:39:01;;;;;;;;;3.00;3.00;;;;;;;;5035197;28;8780;-74
2022/07/06 05:41:27;;;;;;;;;3.80;2.00;;;;;;;;5034966;28;8756;-74
2022/07/06 05:43:54;;;;;;;;;2.80;2.20;;;;;;;;5034080;28;9305;-74
2022/07/06 05:46:21;;;;;;;;;3.60;3.40;;;;;;;;5034248;28;8806;-75
2022/07/06 05:51:32;;;;;;;;;5.20;4.00;;;;;;;;5033560;28;8764;-74
2022/07/06 05:53:59;;;;;;;;;4.60;4.60;;;;;;;;5033695;28;8780;-74
2022/07/06 05:56:25;;;;;;;;;4.40;4.40;;;;;;;;5033255;28;8878;-75
2022/07/06 05:58:52;;;;;;;;;5.20;5.20;;;;;;;;5034919;28;8906;-74
2022/07/06 06:01:19;;;;;;;;;7.00;6.00;;;;;;;;5035400;28;8873;-74
2022/07/06 06:03:45;;;;;;;;;4.00;3.80;;;;;;;;5033030;28;8791;-74
2022/07/06 06:06:12;;;;;;;;;6.60;5.00;;;;;;;;5033433;28;8768;-80
2022/07/06 06:08:39;;;;;;;;;3.80;3.60;;;;;;;;5033288;28;8815;-74
2022/07/06 06:11:05;;;;;;;;;5.00;5.00;;;;;;;;5034772;28;8768;-74
2022/07/06 06:13:32;;;;;;;;;5.00;5.00;;;;;;;;5032856;28;8768;-74
2022/07/06 06:15:58;;;;;;;;;3.60;2.40;;;;;;;;5034997;28;8792;-79
2022/07/06 06:18:25;;;;;;;;;4.00;3.00;;;;;;;;5032630;28;8764;-74
2022/07/06 06:20:52;;;;;;;;;6.00;4.00;;;;;;;;5033448;28;8850;-74
2022/07/06 06:23:18;;;;;;;;;3.20;3.20;;;;;;;;5032964;28;9432;-75
2022/07/06 06:25:45;;;;;;;;;4.80;4.00;;;;;;;;5032996;28;8816;-74
2022/07/06 06:28:12;;;;;;;;;3.60;2.80;;;;;;;;5033567;28;8838;-75
2022/07/06 06:30:39;;;;;;;;;6.60;4.60;;;;;;;;5016759;28;9522;-74
2022/07/06 06:33:08;;;;;;;;;3.80;2.40;;;;;;;;5034180;28;8878;-74
2022/07/06 06:35:35;;;;;;;;;4.80;3.80;;;;;;;;5040613;28;8799;-74
2022/07/06 06:38:02;;;;;;;;;6.20;4.80;;;;;;;;5036481;28;9450;-74
2022/07/06 06:40:29;;;;;;;;;5.00;4.20;;;;;;;;5036540;28;8766;-74
2022/07/06 06:42:55;;;;;;;;;5.40;4.60;;;;;;;;5037294;28;8743;-79
2022/07/06 06:45:22;;;;;;;;;6.80;5.00;;;;;;;;5036385;28;8759;-76
2022/07/06 06:47:49;;;;;;;;;2.60;2.60;;;;;;;;5036102;28;8775;-74
2022/07/06 06:50:15;;;;;;;;;4.80;3.80;;;;;;;;5036624;28;8770;-76
2022/07/06 06:52:42;;;;;;;;;6.20;6.20;;;;;;;;5020250;28;8763;-75
2022/07/06 06:55:09;;;;;;;;;7.60;7.60;;;;;;;;5037178;28;8783;-74
2022/07/06 06:57:36;;;;;;;;;8.40;6.00;;;;;;;;5035826;28;8755;-74
2022/07/06 07:00:03;;;;;;;;;6.60;6.60;;;;;;;;5053948;28;8759;-75
2022/07/06 07:02:29;;;;;;;;;14.00;11.40;;;;;;;;5053712;28;8779;-74
2022/07/06 07:04:56;;;;;;;;;23.50;23.50;;;;;;;;5054106;28;8751;-74
2022/07/06 07:07:22;;;;;;;;;8.60;8.40;;;;;;;;5020614;28;8860;-74
2022/07/06 07:09:49;;;;;;;;;6.80;5.00;;;;;;;;5054469;28;8937;-79
2022/07/06 07:12:16;;;;;;;;;8.40;8.00;;;;;;;;5053991;28;8766;-74
2022/07/06 07:14:43;;;;;;;;;4.00;4.00;;;;;;;;5036295;28;8807;-74
2022/07/06 07:17:13;;;;;;;;;5.00;3.40;;;;;;;;5019878;28;8755;-74
2022/07/06 07:19:40;;;;;;;;;3.80;1.80;;;;;;;;5053792;28;8777;-74
2022/07/06 07:22:07;;;;;;;;;5.00;2.40;;;;;;;;5054653;28;9581;-74
2022/07/06 07:24:33;;;;;;;;;3.00;2.00;;;;;;;;5053724;28;8759;-74
2022/07/06 07:27:00;;;;;;;;;1.00;1.00;;;;;;;;5036061;28;8805;-74
2022/07/06 07:29:26;;;;;;;;;2.00;1.00;;;;;;;;5022109;28;8806;-74
2022/07/06 07:31:53;;;;;;;;;11.20;10.60;;;;;;;;5039981;28;8851;-74
2022/07/06 07:34:20;;;;;;;;;8.20;7.00;;;;;;;;5057632;28;8797;-74
2022/07/06 07:36:46;;;;;;;;;10.00;9.60;;;;;;;;5035927;28;8858;-78
2022/07/06 07:39:13;;;;;;;;;9.80;9.80;;;;;;;;5035951;28;8862;-74
2022/07/06 07:41:40;;;;;;;;;8.00;5.00;;;;;;;;5036158;28;9436;-74
2022/07/06 07:44:06;;;;;;;;;10.20;10.20;;;;;;;;5037385;28;8764;-74
2022/07/06 07:46:33;;;;;;;;;14.80;11.40;;;;;;;;5035932;28;8786;-74
2022/07/06 07:48:59;;;;;;;;;4.00;2.20;;;;;;;;5036564;28;8745;-74
2022/07/06 07:51:26;;;;;;;;;2.20;1.20;;;;;;;;5035480;28;8829;-74
2022/07/06 07:53:53;;;;;;;;;4.20;3.40;;;;;;;;5035822;28;9277;-74
2022/07/06 07:56:20;;;;;;;;;1.00;0.00;;;;;;;;5035428;28;8812;-74
2022/07/06 07:58:48;;;;;;;;;2.00;1.80;;;;;;;;5035886;28;8875;-74
2022/07/06 08:01:15;;;;;;;;;1.00;0.00;;;;;;;;5036441;28;8787;-74
2022/07/06 08:03:41;;;;;;;;;0.60;0.60;;;;;;;;5036122;28;8850;-78
2022/07/06 08:06:08;;;;;;;;;2.00;1.00;;;;;;;;5036957;28;9451;-74
2022/07/06 08:08:35;;;;;;;;;1.00;1.00;;;;;;;;5036808;28;8862;-74
2022/07/06 08:11:01;;;;;;;;;2.40;1.20;;;;;;;;5035512;28;8788;-74
2022/07/06 08:13:28;;;;;;;;;0.80;0.80;;;;;;;;5035294;28;8780;-75
2022/07/06 08:15:55;;;;;;;;;1.00;1.00;;;;;;;;5036288;28;8781;-81
2022/07/06 08:18:21;;;;;;;;;1.00;1.00;;;;;;;;5035206;28;8783;-74
2022/07/06 08:20:48;;;;;;;;;1.60;0.20;;;;;;;;5035564;28;8776;-74
2022/07/06 08:23:15;;;;;;;;;1.00;1.00;;;;;;;;5035341;28;8805;-74
2022/07/06 08:25:41;;;;;;;;;2.80;1.00;;;;;;;;5035389;28;8830;-74
2022/07/06 08:28:08;;;;;;;;;1.20;1.00;;;;;;;;5036094;28;8783;-74
2022/07/06 08:30:35;;;;;;;;;1.60;0.60;;;;;;;;5036404;28;8821;-74
2022/07/06 08:33:02;;;;;;;;;0.80;0.80;;;;;;;;5035120;28;8796;-74
2022/07/06 08:35:28;;;;;;;;;1.20;1.00;;;;;;;;5034409;28;8800;-75
2022/07/06 08:37:55;;;;;;;;;0.60;0.60;;;;;;;;5036483;28;8838;-74
2022/07/06 08:40:22;;;;;;;;;1.00;1.00;;;;;;;;5035640;28;8773;-74
2022/07/06 08:42:49;;;;;;;;;1.00;1.00;;;;;;;;5034967;28;8818;-74
2022/07/06 08:45:16;;;;;;;;;2.00;1.80;;;;;;;;5035049;28;8764;-74
2022/07/06 08:47:42;;;;;;;;;1.40;1.40;;;;;;;;5034811;28;8772;-74
2022/07/06 08:50:10;;;;;;;;;3.00;2.00;;;;;;;;5035014;28;8761;-74
2022/07/06 08:52:37;;;;;;;;;2.00;1.80;;;;;;;;5034728;28;8757;-74
2022/07/06 08:55:03;;;;;;;;;5.40;4.00;;;;;;;;5035439;28;8819;-74
2022/07/06 08:57:30;;;;;;;;;2.40;1.20;;;;;;;;5035880;28;8764;-75
2022/07/06 08:59:57;;;;;;;;;2.00;2.00;;;;;;;;5018423;28;8780;-74
2022/07/06 09:02:26;;;;;;;;;3.00;3.00;;;;;;;;5034462;28;9440;-74
2022/07/06 09:04:55;;;;;;;;;3.20;2.20;;;;;;;;5018375;28;8752;-74
2022/07/06 09:07:21;;;;;;;;;2.00;1.00;;;;;;;;5034649;28;8772;-74
2022/07/06 09:09:49;;;;;;;;;2.00;0.60;;;;;;;;5018008;28;8764;-74
2022/07/06 09:12:15;;;;;;;;;3.20;1.80;;;;;;;;5017691;28;8776;-74
2022/07/06 09:14:42;;;;;;;;;1.40;1.40;;;;;;;;5033846;28;8776;-74
2022/07/06 09:17:09;;;;;;;;;3.60;2.00;;;;;;;;5017810;28;8875;-74
2022/07/06 09:19:36;;;;;;;;;1.40;1.40;;;;;;;;5035542;28;9455;-74
2022/07/06 09:22:03;;;;;;;;;4.60;3.00;;;;;;;;5036261;28;8779;-74
2022/07/06 09:24:31;;;;;;;;;1.20;0.20;;;;;;;;5034982;28;8780;-74
2022/07/06 09:26:58;;;;;;;;;3.00;3.00;;;;;;;;5034353;28;8776;-74
2022/07/06 09:29:29;;;;;;;;;3.80;3.00;;;;;;;;5033950;28;8865;-74
2022/07/06 09:31:58;;;;;;;;;3.00;3.00;;;;;;;;5035519;28;8757;-74
2022/07/06 09:34:26;;;;;;;;;4.80;2.00;;;;;;;;5033302;28;8776;-75
2022/07/06 09:36:53;;;;;;;;;7.20;4.60;;;;;;;;5053187;28;8893;-74
2022/07/06 09:39:25;;;;;;;;;7.00;4.00;;;;;;;;5037300;28;8818;-78
2022/07/06 09:41:53;;;;;;;;;7.60;6.20;;;;;;;;5055047;28;9422;-74
2022/07/06 09:44:21;;;;;;;;;5.80;5.80;;;;;;;;5020638;28;8774;-75
2022/07/06 09:46:48;;;;;;;;;9.80;5.80;;;;;;;;5054691;28;8743;-74
2022/07/06 09:49:24;;;;;;;;;8.40;7.60;;;;;;;;5037769;28;8742;-74
2022/07/06 09:51:54;;;;;;;;;6.20;5.80;;;;;;;;5037328;28;8747;-78
2022/07/06 09:54:21;;;;;;;;;6.60;3.40;;;;;;;;5054592;28;8763;-75
2022/07/06 09:56:50;;;;;;;;;6.00;4.60;;;;;;;;5037184;28;8836;-74
2022/07/06 09:59:18;;;;;;;;;8.60;7.60;;;;;;;;5037534;28;8771;-75
2022/07/06 10:01:44;;;;;;;;;7.20;6.40;;;;;;;;5054744;28;8786;-74
2022/07/06 10:04:12;;;;;;;;;10.60;7.40;;;;;;;;5037246;28;9469;-74
2022/07/06 10:06:39;;;;;;;;;8.00;8.00;;;;;;;;5037009;28;8786;-74
2022/07/06 10:09:07;;;;;;;;;8.60;7.60;;;;;;;;5054620;28;8790;-77
2022/07/06 10:11:35;;;;;;;;;5.20;5.20;;;;;;;;5036572;28;8882;-79
2022/07/06 10:14:01;;;;;;;;;7.60;5.80;;;;;;;;5036910;28;8782;-74
2022/07/06 10:16:28;;;;;;;;;3.40;3.00;;;;;;;;5020180;28;9471;-74
2022/07/06 10:18:54;;;;;;;;;9.20;8.00;;;;;;;;5037306;28;8769;-74
2022/07/06 10:21:24;;;;;;;;;7.80;5.80;;;;;;;;5054188;28;8767;-75
2022/07/06 10:23:51;;;;;;;;;5.60;5.00;;;;;;;;5054335;28;8766;-74
2022/07/06 10:26:18;;;;;;;;;7.00;6.20;;;;;;;;5036831;28;8766;-75
2022/07/06 10:28:46;;;;;;;;;8.80;8.20;;;;;;;;5037064;28;8814;-74
2022/07/06 10:31:14;;;;;;;;;7.00;5.40;;;;;;;;5054930;28;8763;-75
2022/07/06 10:33:41;;;;;;;;;6.00;6.00;;;;;;;;5036353;28;8771;-75
2022/07/06 10:36:08;;;;;;;;;6.00;3.40;;;;;;;;5036614;28;8909;-78
2022/07/06 10:38:35;;;;;;;;;6.00;5.00;;;;;;;;5036595;28;8767;-76
2022/07/06 10:41:06;;;;;;;;;4.00;4.00;;;;;;;;5020091;28;9469;-75
2022/07/06 10:43:33;;;;;;;;;7.00;3.80;;;;;;;;5036422;28;8789;-74
2022/07/06 10:46:00;;;;;;;;;3.40;3.20;;;;;;;;5037109;28;8841;-74
2022/07/06 10:48:32;;;;;;;;;4.60;4.40;;;;;;;;5053762;28;8804;-74
2022/07/06 10:51:01;;;;;;;;;3.80;3.60;;;;;;;;5020069;28;8881;-78
2022/07/06 10:53:28;;;;;;;;;4.60;4.60;;;;;;;;5036441;28;8785;-74
2022/07/06 10:55:55;;;;;;;;;7.00;6.00;;;;;;;;5036531;28;8800;-74
2022/07/06 10:58:41;;;;;;;;;6.80;4.40;;;;;;;;5037032;28;8835;-74
2022/07/06 11:01:11;;;;;;;;;4.40;2.80;;;;;;;;5020307;28;8747;-74
2022/07/06 11:03:44;;;;;;;;;7.40;7.20;;;;;;;;5017382;28;8772;-74
2022/07/06 11:06:12;;;;;;;;;6.60;5.20;;;;;;;;5038054;28;8805;-75
2022/07/06 11:08:57;;;;;;;;;7.60;7.00;;;;;;;;5020448;28;8788;-74
2022/07/06 11:11:26;;;;;;;;;3.80;2.60;;;;;;;;5037553;28;8816;-74
2022/07/06 11:13:57;;;;;;;;;4.20;4.00;;;;;;;;5038077;28;8737;-74
2022/07/06 11:16:26;;;;;;;;;9.20;6.60;;;;;;;;5020714;28;8843;-75
2022/07/06 11:19:09;;;;;;;;;8.80;7.00;;;;;;;;5051657;28;9031;-74
2022/07/06 11:21:40;;;;;;;;;9.00;7.40;;;;;;;;5039844;28;8844;-74
2022/07/06 11:24:12;;;;;;;;;10.40;9.00;;;;;;;;5040048;28;8881;-74
2022/07/06 11:26:38;;;;;;;;;8.00;8.00;;;;;;;;5039660;28;8783;-74
2022/07/06 11:29:06;;;;;;;;;10.80;8.80;;;;;;;;5023292;28;8894;-74
2022/07/06 11:31:39;;;;;;;;;16.60;14.60;;;;;;;;5039909;28;8739;-74
2022/07/06 11:34:06;;;;;;;;;13.00;10.20;;;;;;;;5020772;28;8773;-74
2022/07/06 11:36:33;;;;;;;;;13.40;10.40;;;;;;;;5015845;28;8798;-74
2022/07/06 11:39:00;;;;;;;;;15.40;11.60;;;;;;;;5016380;28;8786;-81
2022/07/06 11:41:27;;;;;;;;;11.40;11.00;;;;;;;;5017445;28;8775;-74
2022/07/06 11:43:53;;;;;;;;;12.60;10.00;;;;;;;;5017692;28;8782;-74
2022/07/06 11:46:21;;;;;;;;;11.40;11.40;;;;;;;;5018023;28;8770;-74
2022/07/06 11:48:51;;;;;;;;;14.20;14.00;;;;;;;;5029162;28;8785;-74
2022/07/06 11:51:17;;;;;;;;;12.80;9.20;;;;;;;;5035712;28;8780;-75
2022/07/06 11:53:45;;;;;;;;;8.40;8.40;;;;;;;;5035854;28;8776;-78
2022/07/06 11:56:12;;;;;;;;;10.80;7.80;;;;;;;;5035905;28;8819;-74
2022/07/06 11:58:40;;;;;;;;;9.20;7.00;;;;;;;;5035883;28;8970;-81
2022/07/06 12:01:07;;;;;;;;;11.40;8.20;;;;;;;;5037626;28;8756;-74
2022/07/06 12:03:34;;;;;;;;;6.80;6.80;;;;;;;;5035361;28;8846;-74
2022/07/06 12:06:07;;;;;;;;;12.40;9.80;;;;;;;;5035835;28;8772;-74
2022/07/06 12:08:41;;;;;;;;;11.60;10.80;;;;;;;;5036730;28;8772;-74
2022/07/06 12:11:08;;;;;;;;;10.40;8.80;;;;;;;;5019306;28;8752;-74
2022/07/06 12:13:42;;;;;;;;;8.80;7.80;;;;;;;;5036489;28;8791;-79
2022/07/06 12:16:15;;;;;;;;;12.60;8.20;;;;;;;;5036310;28;8804;-74
2022/07/06 12:18:42;;;;;;;;;5.40;5.40;;;;;;;;5035037;28;8887;-74
2022/07/06 12:21:10;;;;;;;;;8.00;6.80;;;;;;;;5035426;28;8816;-74
2022/07/06 12:23:40;;;;;;;;;9.40;7.00;;;;;;;;5036290;28;8780;-77
2022/07/06 12:26:07;;;;;;;;;6.60;6.60;;;;;;;;5036712;28;8837;-74
2022/07/06 12:28:33;;;;;;;;;9.20;7.60;;;;;;;;5035241;28;8787;-74
2022/07/06 12:31:00;;;;;;;;;7.40;6.00;;;;;;;;5035995;28;8827;-74
2022/07/06 12:33:27;;;;;;;;;5.00;4.20;;;;;;;;5034722;28;8768;-81
2022/07/06 12:35:54;;;;;;;;;8.80;6.00;;;;;;;;5034913;28;8824;-74
2022/07/06 12:38:25;;;;;;;;;7.80;6.40;;;;;;;;5018464;28;8802;-75
2022/07/06 12:40:51;;;;;;;;;6.60;6.20;;;;;;;;5035173;28;9435;-74
2022/07/06 12:43:40;;;;;;;;;7.40;6.00;;;;;;;;5035597;28;8899;-75
2022/07/06 12:46:25;;;;;;;;;8.60;6.40;;;;;;;;5035607;28;8772;-74
2022/07/06 12:48:54;;;;;;;;;5.60;5.60;;;;;;;;5036373;28;8765;-74
2022/07/06 12:51:21;;;;;;;;;6.40;6.00;;;;;;;;5034616;28;8806;-75
2022/07/06 12:53:48;;;;;;;;;5.00;5.00;;;;;;;;5035964;28;8787;-74
2022/07/06 12:56:15;;;;;;;;;6.40;4.00;;;;;;;;5035948;28;8772;-75
2022/07/06 12:59:02;;;;;;;;;6.40;4.00;;;;;;;;5034699;28;8894;-74
2022/07/06 13:01:28;;;;;;;;;7.80;5.40;;;;;;;;5035629;28;8791;-75
2022/07/06 13:03:56;;;;;;;;;7.00;7.00;;;;;;;;5034757;28;8787;-74
2022/07/06 13:06:32;;;;;;;;;8.20;7.00;;;;;;;;5034206;28;8842;-74
2022/07/06 13:08:59;;;;;;;;;9.00;8.40;;;;;;;;5018236;28;9411;-74
2022/07/06 13:11:26;;;;;;;;;14.40;12.20;;;;;;;;5034095;28;8814;-77
2022/07/06 13:13:53;;;;;;;;;12.00;10.80;;;;;;;;5034572;28;8918;-74
2022/07/06 13:16:21;;;;;;;;;13.20;9.80;;;;;;;;5036148;28;8800;-75
2022/07/06 13:18:48;;;;;;;;;14.40;11.40;;;;;;;;5035270;28;8788;-75
2022/07/06 13:21:14;;;;;;;;;14.00;13.00;;;;;;;;5035545;28;8853;-74
2022/07/06 13:23:41;;;;;;;;;11.20;9.60;;;;;;;;5034126;28;8807;-74
2022/07/06 13:26:08;;;;;;;;;12.80;10.60;;;;;;;;5034823;28;8764;-74
2022/07/06 13:28:35;;;;;;;;;12.00;10.00;;;;;;;;5034016;28;8764;-74
2022/07/06 13:31:01;;;;;;;;;14.00;10.60;;;;;;;;5036028;28;8808;-74
2022/07/06 13:33:28;;;;;;;;;14.80;11.40;;;;;;;;5034752;28;8856;-74
2022/07/06 13:35:55;;;;;;;;;15.00;12.60;;;;;;;;5044406;28;8955;-74
2022/07/06 13:38:21;;;;;;;;;14.40;11.40;;;;;;;;5054662;28;8813;-78
2022/07/06 13:40:50;;;;;;;;;13.00;10.20;;;;;;;;5055211;28;8782;-74
2022/07/06 13:43:17;;;;;;;;;13.40;11.80;;;;;;;;5055742;28;8793;-79
2022/07/06 13:45:44;;;;;;;;;15.40;15.00;;;;;;;;5020738;28;8867;-74
2022/07/06 13:48:10;;;;;;;;;16.60;13.40;;;;;;;;5037091;28;8759;-74
2022/07/06 13:50:37;;;;;;;;;13.80;10.40;;;;;;;;5036945;28;8795;-75
2022/07/06 13:53:04;;;;;;;;;9.00;9.00;;;;;;;;5037057;28;8767;-74
2022/07/06 13:55:30;;;;;;;;;10.20;8.40;;;;;;;;5037143;28;8779;-74
2022/07/06 13:57:57;;;;;;;;;11.80;8.20;;;;;;;;5037695;28;8793;-75
2022/07/06 14:00:24;;;;;;;;;10.00;9.00;;;;;;;;5036985;28;8825;-75
2022/07/06 14:02:50;;;;;;;;;6.00;6.00;;;;;;;;5054666;28;8763;-74
2022/07/06 14:05:17;;;;;;;;;8.00;5.80;;;;;;;;5020205;28;8751;-78
2022/07/06 14:07:45;;;;;;;;;7.00;7.00;;;;;;;;5020468;28;8798;-75
2022/07/06 14:10:11;;;;;;;;;6.40;5.40;;;;;;;;5037912;28;8747;-74
2022/07/06 14:12:38;;;;;;;;;4.00;4.00;;;;;;;;5036890;28;8798;-74
2022/07/06 14:15:05;;;;;;;;;3.80;3.60;;;;;;;;5036628;28;9415;-75
2022/07/06 14:17:31;;;;;;;;;4.60;4.40;;;;;;;;5019970;28;8774;-74
2022/07/06 14:19:58;;;;;;;;;2.80;2.80;;;;;;;;5037066;28;8763;-73
2022/07/06 14:22:25;;;;;;;;;0.00;0.00;;;;;;;;5036853;28;8777;-75
2022/07/06 14:24:51;;;;;;;;;2.00;2.00;;;;;;;;5037022;28;8820;-74
2022/07/06 14:27:18;;;;;;;;;2.00;2.00;;;;;;;;5054173;28;8759;-74
2022/07/06 14:29:45;;;;;;;;;2.00;2.00;;;;;;;;5036523;28;8803;-76
2022/07/06 14:32:11;;;;;;;;;3.00;1.00;;;;;;;;5036820;28;8775;-77
2022/07/06 14:34:38;;;;;;;;;1.00;1.00;;;;;;;;5036600;28;8771;-74
2022/07/06 14:37:05;;;;;;;;;1.00;1.00;;;;;;;;5034534;28;8819;-74
2022/07/06 14:39:31;;;;;;;;;1.20;1.20;;;;;;;;5040758;28;8764;-74
2022/07/06 14:41:58;;;;;;;;;2.00;1.00;;;;;;;;5039817;28;8894;-74
2022/07/06 14:44:26;;;;;;;;;1.00;1.00;;;;;;;;5039567;28;8784;-74
2022/07/06 14:46:53;;;;;;;;;2.00;0.00;;;;;;;;5041048;28;8788;-74
2022/07/06 14:49:22;;;;;;;;;3.00;0.00;;;;;;;;5041120;28;8830;-74
2022/07/06 14:51:49;;;;;;;;;2.40;2.00;;;;;;;;5039679;28;9494;-78
2022/07/06 14:54:15;;;;;;;;;1.00;0.00;;;;;;;;5023023;28;8779;-74
2022/07/06 14:56:45;;;;;;;;;1.00;1.00;;;;;;;;5040764;28;8791;-74
2022/07/06 14:59:12;;;;;;;;;0.00;0.00;;;;;;;;5039766;28;8768;-77
2022/07/06 15:01:38;;;;;;;;;0.80;0.00;;;;;;;;5039722;28;8776;-74